• Join FlightAware (Why Join?)
  • Login
  • US Flag 
11:59AM EST


 

Airport Tracker/Info


-or-


 

Live Flight TrackerFlight Track Log ✈ N173AA ✈ 20-Aug-2013 ✈ KPGV - KRDU

Flight Track Log - Related Links

Times and Time Zones

All times are in EDT time to prevent confusion due to time zone crossing. See the N173AA flight status page for this flight to view local times or setup timezone preferences in your user account.

Time Position Orientation Groundspeed Altitude Reporting Facility
EDT Latitude Longitude Course Direction KTS MPH feet Rate Location/Type
05:51PM 35.7797 -77.5072 303° West 332 382 7,400  Level Washington Center
05:52PM 35.7950 -77.5944 282° West 270 311 7,900 1,008 Climbing Washington Center
05:53PM 35.8081 -77.6844 280° West 270 311 9,400 1,736 Climbing Washington Center
05:54PM 35.8233 -77.7644 283° West 257 296 11,400 1,966 Climbing Washington Center
05:55PM 35.8367 -77.8389 282° West 245 282 13,300 1,765 Climbing Washington Center
05:56PM 35.7532 -78.1345 282° West  Level FlightAware Approximate
05:56PM 35.8519 -77.9164 284° West 239 275 14,900  Level Washington Center
05:57PM 35.8628 -77.9961 280° West 239 275 16,500 1,438 Climbing Washington Center
05:58PM 35.8800 -78.0761 285° West 239 275 17,800 1,462 Climbing Washington Center
05:59PM 35.8969 -78.1536 285° West 239 275 19,400 1,563 Climbing Washington Center
06:00PM 35.9142 -78.2283 286° West 239 275 20,900 787 Climbing Washington Center
06:01PM 35.9228 -78.3158 277° West 244 281 21,000 50 Climbing Washington Center
06:02PM 35.9142 -78.4158 264° West 272 313 21,000  Level Washington Center
06:03PM 35.9075 -78.5181 265° West 294 338 21,000  Level Washington Center
06:04PM 35.9028 -78.6231 267° West 304 350 21,000  Level Washington Center
06:05PM 35.9000 -78.7306 268° West 310 357 21,000  Level Washington Center
06:06PM 35.8972 -78.8331 268° West 310 357 21,000 347 Level Washington Center
06:07PM 35.8944 -78.9381 268° West 310 357 21,700 885 Climbing Washington Center
06:08PM 35.9214 -79.0211 292° West 296 341 22,800 407 Climbing Washington Center
06:09PM 36.0128 -79.0278 357° North 243 280 22,500 -513 Descending Washington Center
06:10PM 36.1108 -79.0319 358° North 286 329 21,800 -744 Descending Washington Center
06:11PM 36.2033 -79.0103 11° North 327 376 21,000 -738 Descending Washington Center
06:12PM 36.2497 -78.9197 58° Northeast 287 330 20,300 -908 Descending Washington Center
06:13PM 36.2547 -78.8067 87° East 272 313 19,200 -1,261 Descending Washington Center
06:14PM 36.2625 -78.6756 86° East 306 352 17,800 -1,328 Descending Washington Center
06:15PM 36.2897 -78.5864 69° East 319 367 16,500 -1,488 Descending Washington Center
06:16PM 36.3711 -78.5894 358° North 223 257 14,800 -1,600 Descending Washington Center
06:17PM 36.4308 -78.6125 343° North 278 320 13,700 -908 Descending Washington Center
06:18PM 36.4858 -78.6661 322° Northwest 236 272 13,000 -313 Descending Washington Center
06:19PM 36.4692 -78.7483 256° West 182 209 13,000  Level Washington Center
06:20PM 36.4544 -78.8353 258° West 219 252 13,000  Level Washington Center
06:21PM 36.4372 -78.9225 256° West 245 282 13,000  Level Washington Center
06:22PM 36.3781 -78.9561 205° Southwest 227 261 13,000 -198 Level Washington Center
06:23PM 36.2872 -78.9214 163° South 247 284 12,600 -650 Descending Washington Center
06:24PM 36.2153 -78.8822 156° South 306 352 11,700 -1,140 Descending Washington Center
06:25PM 36.1694 -78.8031 126° Southeast 265 305 10,300 -1,714 Descending Washington Center
06:26PM 36.1444 -78.7197 110° East 258 297 8,300 -1,971 Descending Washington Center
06:28PM 36.0947 -78.6278 124° Southeast 245 282 5,700 -1,577 Descending Washington Center
06:28PM 36.0389 -78.6050 162° South 230 265 4,700 -780 Descending Washington Center
06:30PM 35.9836 -78.6492 213° Southwest 204 235 4,100 -837 Descending Washington Center
06:31PM 35.9447 -78.6989 226° Southwest 206 237 2,900 -1,381 Descending Washington Center
06:31PM 35.9081 -78.7436 225° Southwest 195 224 1,500 -1,286 Descending Washington Center
06:32PM 35.8800 -78.7786 225° Southwest 134 154 500 -1,000 Descending Washington Center